createdAt,value
2023-03-21T00:00:23.676Z,7.35
2023-03-21T00:02:50.545Z,8.15
2023-03-21T00:05:17.258Z,10.75
2023-03-21T00:07:43.911Z,9.85
2023-03-21T00:10:18.156Z,10.50
2023-03-21T00:12:50.443Z,7.72
2023-03-21T00:15:20.593Z,13.07
2023-03-21T00:17:50.949Z,9.98
2023-03-21T00:20:17.427Z,8.35
2023-03-21T00:22:43.969Z,8.57
2023-03-21T00:25:13.918Z,16.30
2023-03-21T00:27:53.666Z,9.60
2023-03-21T00:30:27.142Z,13.27
2023-03-21T00:35:58.483Z,7.22
2023-03-21T00:38:29.143Z,9.57
2023-03-21T00:40:56.998Z,9.52
2023-03-21T00:43:30.176Z,13.80
2023-03-21T00:45:58.342Z,55.60
2023-03-21T00:48:25.891Z,11.43
2023-03-21T00:50:54.246Z,11.32
2023-03-21T00:53:32.150Z,8.13
2023-03-21T00:55:58.553Z,7.50
2023-03-21T00:58:24.878Z,9.43
2023-03-21T01:00:51.277Z,15.13
2023-03-21T01:03:24.917Z,8.63
2023-03-21T01:06:04.949Z,12.48
2023-03-21T01:08:44.682Z,12.32
2023-03-21T01:11:18.677Z,9.10
2023-03-21T01:13:53.799Z,8.90
2023-03-21T01:16:22.373Z,9.35
2023-03-21T01:18:48.716Z,10.45
2023-03-21T01:21:15.380Z,9.95
2023-03-21T01:23:42.340Z,8.15
2023-03-21T01:26:09.792Z,7.60
2023-03-21T01:28:36.765Z,17.60
2023-03-21T01:31:03.782Z,12.75
2023-03-21T01:33:30.824Z,14.82
2023-03-21T01:36:06.527Z,13.15
2023-03-21T01:38:38.882Z,12.85
2023-03-21T01:41:17.160Z,9.57
2023-03-21T01:43:45.953Z,15.15
2023-03-21T01:46:12.315Z,9.80
2023-03-21T01:48:40.899Z,15.05
2023-03-21T01:51:07.829Z,7.85
2023-03-21T01:53:35.969Z,12.95
2023-03-21T01:56:18.537Z,10.25
2023-03-21T01:58:45.588Z,7.60
2023-03-21T02:01:12.186Z,14.43
2023-03-21T02:03:50.002Z,8.63
2023-03-21T02:06:19.758Z,9.82
2023-03-21T02:08:46.732Z,8.88
2023-03-21T02:11:13.159Z,16.88
2023-03-21T02:13:40.631Z,10.90
2023-03-21T02:16:18.185Z,18.98
2023-03-21T02:18:56.773Z,10.68
2023-03-21T02:21:36.380Z,5.65
2023-03-21T02:24:11.285Z,8.63
2023-03-21T02:26:42.399Z,7.25
2023-03-21T02:29:10.272Z,9.00
2023-03-21T02:31:42.151Z,10.25
2023-03-21T02:34:08.507Z,11.18
2023-03-21T02:36:50.025Z,12.82
2023-03-21T02:39:17.951Z,7.00
2023-03-21T02:41:44.246Z,9.70
2023-03-21T02:44:17.091Z,11.57
2023-03-21T02:47:06.627Z,6.80
2023-03-21T02:49:46.717Z,8.00
2023-03-21T02:52:25.756Z,8.98
2023-03-21T02:54:56.046Z,7.35
2023-03-21T02:57:25.316Z,6.55
2023-03-21T03:00:00.135Z,5.78
2023-03-21T03:02:28.804Z,5.78
2023-03-21T03:04:55.662Z,6.93
2023-03-21T03:07:25.316Z,6.18
2023-03-21T03:10:03.880Z,11.13
2023-03-21T03:12:45.461Z,5.00
2023-03-21T03:15:26.528Z,6.38
2023-03-21T03:18:14.579Z,8.77
2023-03-21T03:20:52.919Z,8.75
2023-03-21T03:23:22.028Z,7.03
2023-03-21T03:25:53.648Z,7.55
2023-03-21T03:28:22.996Z,5.20
2023-03-21T03:31:07.119Z,5.55
2023-03-21T03:33:36.106Z,7.35
2023-03-21T03:36:06.592Z,8.05
2023-03-21T03:38:34.256Z,6.32
2023-03-21T03:41:07.921Z,6.72
2023-03-21T03:43:38.464Z,5.95
2023-03-21T03:46:12.429Z,7.30
2023-03-21T03:48:48.868Z,5.50
2023-03-21T03:51:17.336Z,5.95
2023-03-21T03:53:50.490Z,6.68
2023-03-21T03:56:16.997Z,9.30
2023-03-21T03:58:45.940Z,6.70
2023-03-21T04:01:12.556Z,5.60
2023-03-21T04:03:48.835Z,15.40
2023-03-21T04:06:17.300Z,7.03
2023-03-21T04:08:43.769Z,9.82
2023-03-21T04:11:11.012Z,8.02
2023-03-21T04:13:37.343Z,17.45
2023-03-21T04:16:04.914Z,11.23
2023-03-21T04:18:32.203Z,6.20
2023-03-21T04:20:58.549Z,5.30
2023-03-21T04:23:25.107Z,14.43
2023-03-21T04:25:56.777Z,5.78
2023-03-21T04:28:23.598Z,10.88
2023-03-21T04:31:01.385Z,7.65
2023-03-21T04:33:29.723Z,9.85
2023-03-21T04:35:56.743Z,16.80
2023-03-21T04:38:23.455Z,11.05
2023-03-21T04:40:49.933Z,8.65
2023-03-21T04:43:16.656Z,10.00
2023-03-21T04:45:43.270Z,9.07
2023-03-21T04:48:09.617Z,10.95
2023-03-21T04:50:36.218Z,7.82
2023-03-21T04:53:02.653Z,7.07
2023-03-21T04:55:31.620Z,7.53
2023-03-21T04:57:58.265Z,11.10
2023-03-21T05:00:25.708Z,8.60
2023-03-21T05:02:52.030Z,6.53
2023-03-21T05:05:18.384Z,6.07
2023-03-21T05:07:44.792Z,9.73
2023-03-21T05:10:12.014Z,7.85
2023-03-21T05:12:38.514Z,14.82
2023-03-21T05:15:05.573Z,6.63
2023-03-21T05:17:31.898Z,9.80
2023-03-21T05:19:58.204Z,5.78
2023-03-21T05:22:26.759Z,9.07
2023-03-21T05:24:55.340Z,12.82
2023-03-21T05:27:35.015Z,10.18
2023-03-21T05:30:01.529Z,10.60
2023-03-21T05:32:27.888Z,13.50
2023-03-21T05:34:54.219Z,9.13
2023-03-21T05:37:20.524Z,9.65
2023-03-21T05:39:46.849Z,8.38
2023-03-21T05:42:13.248Z,11.18
2023-03-21T05:44:40.697Z,11.13
2023-03-21T05:47:07.194Z,12.90
2023-03-21T05:49:33.508Z,14.73
2023-03-21T05:51:59.880Z,13.10
2023-03-21T05:54:26.217Z,15.48
2023-03-21T05:56:52.524Z,15.18
2023-03-21T05:59:18.894Z,11.50
2023-03-21T06:01:45.506Z,14.57
2023-03-21T06:04:11.880Z,12.77
2023-03-21T06:06:38.218Z,11.52
2023-03-21T06:09:04.617Z,10.18
2023-03-21T06:11:31.933Z,10.27
2023-03-21T06:13:58.302Z,12.45
2023-03-21T06:16:24.666Z,9.18
2023-03-21T06:18:51.065Z,13.90
2023-03-21T06:21:17.365Z,11.15
2023-03-21T06:23:43.728Z,12.73
2023-03-21T06:26:10.263Z,13.27
2023-03-21T06:28:36.645Z,12.10
2023-03-21T06:31:03.224Z,9.23
2023-03-21T06:33:29.621Z,9.05
2023-03-21T06:35:57.444Z,8.77
2023-03-21T06:38:24.070Z,9.13
2023-03-21T06:40:50.427Z,14.13
2023-03-21T06:43:16.864Z,13.98
2023-03-21T06:45:43.644Z,15.63
2023-03-21T06:48:10.068Z,8.38
2023-03-21T06:50:36.468Z,13.48
2023-03-21T06:53:03.034Z,14.13
2023-03-21T06:55:29.434Z,12.93
2023-03-21T06:57:56.528Z,13.77
2023-03-21T07:00:23.763Z,10.63
2023-03-21T07:02:51.256Z,12.00
2023-03-21T07:05:17.799Z,7.90
2023-03-21T07:07:44.289Z,18.27
2023-03-21T07:10:11.008Z,14.75
2023-03-21T07:12:37.339Z,11.82
2023-03-21T07:15:04.596Z,14.90
2023-03-21T07:17:30.974Z,11.43
2023-03-21T07:19:57.287Z,11.27
2023-03-21T07:22:23.677Z,14.23
2023-03-21T07:25:02.428Z,8.10
2023-03-21T07:27:30.917Z,14.05
2023-03-21T07:29:57.260Z,18.45
2023-03-21T07:32:23.571Z,14.48
2023-03-21T07:34:49.876Z,15.98
2023-03-21T07:37:16.314Z,18.15
2023-03-21T07:39:43.348Z,13.10
2023-03-21T07:42:11.883Z,12.82
2023-03-21T07:44:38.523Z,10.60
2023-03-21T07:47:05.640Z,16.75
2023-03-21T07:49:32.212Z,15.15
2023-03-21T07:51:59.625Z,9.13
2023-03-21T07:54:26.126Z,8.70
2023-03-21T07:56:52.513Z,8.95
2023-03-21T07:59:18.904Z,32.97
2023-03-21T08:01:45.405Z,12.95
2023-03-21T08:04:11.914Z,9.07
2023-03-21T08:06:38.245Z,11.77
2023-03-21T08:09:04.579Z,14.63
2023-03-21T08:11:33.891Z,12.35
2023-03-21T08:14:00.676Z,11.35
2023-03-21T08:16:27.799Z,8.65
2023-03-21T08:18:54.166Z,10.95
2023-03-21T08:21:20.795Z,17.60
2023-03-21T08:23:47.101Z,12.00
2023-03-21T08:26:18.440Z,12.10
2023-03-21T08:28:45.772Z,9.20
2023-03-21T08:31:13.050Z,8.30
2023-03-21T08:33:39.530Z,10.32
2023-03-21T08:36:06.402Z,11.80
2023-03-21T08:38:33.661Z,11.45
2023-03-21T08:41:00.543Z,14.80
2023-03-21T08:43:27.353Z,9.63
2023-03-21T08:45:54.328Z,20.65
2023-03-21T08:48:20.927Z,14.38
2023-03-21T08:50:47.335Z,21.73
2023-03-21T08:53:13.710Z,15.40
2023-03-21T08:55:40.437Z,14.15
2023-03-21T08:58:07.294Z,8.73
2023-03-21T09:00:33.668Z,5.90
2023-03-21T09:03:00.030Z,7.30
2023-03-21T09:05:27.145Z,14.27
2023-03-21T09:07:53.633Z,10.52
2023-03-21T09:10:22.506Z,15.57
2023-03-21T09:12:49.969Z,24.40
2023-03-21T09:15:17.866Z,24.65
2023-03-21T09:17:48.959Z,16.55
2023-03-21T09:20:18.656Z,14.88
2023-03-21T09:22:49.038Z,13.80
2023-03-21T09:25:16.288Z,10.75
2023-03-21T09:27:46.032Z,13.23
2023-03-21T09:30:13.173Z,15.55
2023-03-21T09:32:39.921Z,21.42
2023-03-21T09:35:07.069Z,13.43
2023-03-21T09:37:33.650Z,16.85
2023-03-21T09:40:01.085Z,24.77
2023-03-21T09:42:28.333Z,21.27
2023-03-21T09:45:10.041Z,20.20
2023-03-21T09:47:53.522Z,16.65
2023-03-21T09:50:22.072Z,32.42
2023-03-21T09:52:49.636Z,28.90
2023-03-21T09:55:21.354Z,13.98
2023-03-21T09:57:49.441Z,24.63
2023-03-21T10:00:20.563Z,24.15
2023-03-21T10:02:51.761Z,15.32
2023-03-21T10:05:25.947Z,65.88
2023-03-21T10:08:10.998Z,61.05
2023-03-21T10:10:45.436Z,10.93
2023-03-21T10:13:14.177Z,6.78
2023-03-21T10:15:40.839Z,14.35
2023-03-21T10:18:07.877Z,11.02
2023-03-21T10:20:35.977Z,31.83
2023-03-21T10:23:06.938Z,20.83
2023-03-21T10:25:33.262Z,22.67
2023-03-21T10:28:00.796Z,21.67
2023-03-21T10:30:34.821Z,14.90
2023-03-21T10:33:05.150Z,27.27
2023-03-21T10:35:34.320Z,20.05
2023-03-21T10:38:01.560Z,22.73
2023-03-21T10:40:28.363Z,165.50
2023-03-21T10:42:56.136Z,26.83
2023-03-21T10:45:23.037Z,10.90
2023-03-21T10:47:50.136Z,99.15
2023-03-21T10:50:20.357Z,43.70
2023-03-21T10:52:49.596Z,52.38
2023-03-21T10:55:25.230Z,31.02
2023-03-21T10:58:01.545Z,54.13
2023-03-21T11:00:30.047Z,59.33
2023-03-21T11:02:57.068Z,48.78
2023-03-21T11:05:37.607Z,58.38
2023-03-21T11:08:06.961Z,58.10
2023-03-21T11:10:34.683Z,76.97
2023-03-21T11:13:06.950Z,63.22
2023-03-21T11:15:33.264Z,48.40
2023-03-21T11:18:00.600Z,61.78
2023-03-21T11:20:30.391Z,12.70
2023-03-21T11:22:56.977Z,17.60
2023-03-21T11:25:36.268Z,46.85
2023-03-21T11:28:07.079Z,46.15
2023-03-21T11:30:33.617Z,48.97
2023-03-21T11:33:04.104Z,59.80
2023-03-21T11:35:38.217Z,25.02
2023-03-21T11:38:05.606Z,41.00
2023-03-21T11:40:33.429Z,43.08
2023-03-21T11:43:01.009Z,27.70
2023-03-21T11:45:27.541Z,37.28
2023-03-21T11:47:55.458Z,8.32
2023-03-21T11:50:27.203Z,6.55
2023-03-21T11:53:06.271Z,5.45
2023-03-21T11:55:51.013Z,11.10
2023-03-21T11:58:20.181Z,4.03
2023-03-21T12:00:57.194Z,8.57
2023-03-21T12:03:28.869Z,6.13
2023-03-21T12:06:00.337Z,7.32
2023-03-21T12:08:37.037Z,5.22
2023-03-21T12:11:06.220Z,8.90
2023-03-21T12:13:48.465Z,8.70
2023-03-21T12:16:47.320Z,11.23
2023-03-21T12:19:32.489Z,12.60
2023-03-21T12:22:10.788Z,15.23
2023-03-21T12:24:37.149Z,8.18
2023-03-21T12:27:22.284Z,14.43
2023-03-21T12:30:00.899Z,7.95
2023-03-21T12:32:36.102Z,9.68
2023-03-21T12:37:38.011Z,8.13
2023-03-21T12:40:23.455Z,6.20
2023-03-21T12:42:58.936Z,14.05
2023-03-21T12:45:29.485Z,7.97
2023-03-21T12:48:01.876Z,9.00
2023-03-21T12:50:32.838Z,10.38
2023-03-21T12:53:01.488Z,6.13
2023-03-21T12:55:29.547Z,6.07
2023-03-21T12:58:06.922Z,9.40
2023-03-21T13:00:44.156Z,4.53
2023-03-21T13:03:12.678Z,11.98
2023-03-21T13:05:41.874Z,38.22
2023-03-21T13:08:27.102Z,6.50
2023-03-21T13:10:55.490Z,7.70
2023-03-21T13:13:42.109Z,36.72
2023-03-21T13:16:41.145Z,5.50
2023-03-21T13:19:16.496Z,5.15
2023-03-21T13:24:18.305Z,7.20
2023-03-21T13:26:49.781Z,6.45
2023-03-21T13:29:24.786Z,6.20
2023-03-21T13:31:53.494Z,7.32
2023-03-21T13:34:24.648Z,5.28
2023-03-21T13:36:52.200Z,9.68
2023-03-21T13:39:28.611Z,7.70
2023-03-21T13:41:55.248Z,8.27
2023-03-21T13:44:22.149Z,7.65
2023-03-21T13:46:59.522Z,6.07
2023-03-21T13:49:32.387Z,3.95
2023-03-21T13:52:00.007Z,4.22
2023-03-21T13:54:38.414Z,6.28
2023-03-21T13:57:05.573Z,9.63
2023-03-21T13:59:34.769Z,6.93
2023-03-21T14:02:01.113Z,6.50
2023-03-21T14:04:36.943Z,8.15
2023-03-21T14:07:15.850Z,6.13
2023-03-21T14:09:44.366Z,5.35
2023-03-21T14:12:18.003Z,5.38
2023-03-21T14:14:46.760Z,8.95
2023-03-21T14:17:33.399Z,4.55
2023-03-21T14:20:12.203Z,4.97
2023-03-21T14:22:42.200Z,7.28
2023-03-21T14:25:13.106Z,8.40
2023-03-21T14:27:41.219Z,7.38
2023-03-21T14:30:07.868Z,6.65
2023-03-21T14:32:34.737Z,5.82
2023-03-21T14:35:01.433Z,8.23
2023-03-21T14:37:28.453Z,10.15
2023-03-21T14:40:02.150Z,8.50
2023-03-21T14:42:33.608Z,9.55
2023-03-21T14:45:00.562Z,5.70
2023-03-21T14:47:28.072Z,7.47
2023-03-21T14:49:54.834Z,6.60
2023-03-21T14:52:30.006Z,6.43
2023-03-21T14:57:28.664Z,6.43
2023-03-21T14:59:56.688Z,6.75
2023-03-21T15:02:25.241Z,6.57
2023-03-21T15:04:53.354Z,9.02
2023-03-21T15:07:37.832Z,5.72
2023-03-21T15:10:07.713Z,21.48
2023-03-21T15:12:34.142Z,10.40
2023-03-21T15:15:01.394Z,6.90
2023-03-21T15:17:28.178Z,8.55
2023-03-21T15:19:54.525Z,8.82
2023-03-21T15:22:41.447Z,9.07
2023-03-21T15:25:08.874Z,9.20
2023-03-21T15:27:38.194Z,10.23
2023-03-21T15:30:04.965Z,13.52
2023-03-21T15:32:34.053Z,10.68
2023-03-21T15:35:08.333Z,7.13
2023-03-21T15:37:36.703Z,9.33
2023-03-21T15:40:23.165Z,5.78
2023-03-21T15:42:49.615Z,6.82
2023-03-21T15:45:26.663Z,6.70
2023-03-21T15:48:03.516Z,7.90
2023-03-21T15:50:34.966Z,16.02
2023-03-21T15:53:02.850Z,5.85
2023-03-21T15:56:00.366Z,10.35
2023-03-21T15:58:27.720Z,5.75
2023-03-21T16:00:55.646Z,7.97
2023-03-21T16:03:22.230Z,11.75
2023-03-21T16:06:02.293Z,14.45
2023-03-21T16:08:28.942Z,13.02
2023-03-21T16:11:06.200Z,13.30
2023-03-21T16:13:32.607Z,13.10
2023-03-21T16:15:58.952Z,12.50
2023-03-21T16:18:25.819Z,19.75
2023-03-21T16:20:53.953Z,9.40
2023-03-21T16:23:20.284Z,11.43
2023-03-21T16:25:47.020Z,18.70
2023-03-21T16:28:14.849Z,23.80
2023-03-21T16:30:41.274Z,41.28
2023-03-21T16:33:10.348Z,31.40
2023-03-21T16:35:36.795Z,30.80
2023-03-21T16:38:05.125Z,37.92
2023-03-21T16:40:34.799Z,33.92
2023-03-21T16:43:02.229Z,42.58
2023-03-21T16:45:30.420Z,47.10
2023-03-21T16:47:57.239Z,44.17
2023-03-21T16:50:24.398Z,38.13
2023-03-21T16:52:50.942Z,27.95
2023-03-21T16:55:17.287Z,53.28
2023-03-21T16:57:44.518Z,70.20
2023-03-21T17:00:13.043Z,47.78
2023-03-21T17:02:39.340Z,58.22
2023-03-21T17:05:07.298Z,98.90
2023-03-21T17:07:33.781Z,92.97
2023-03-21T17:10:00.179Z,136.95
2023-03-21T17:12:26.485Z,111.57
2023-03-21T17:14:52.933Z,91.43
2023-03-21T17:17:19.627Z,19.95
2023-03-21T17:19:46.582Z,52.25
2023-03-21T17:22:14.564Z,45.30
2023-03-21T17:24:41.166Z,55.10
2023-03-21T17:27:08.374Z,39.58
2023-03-21T17:29:34.765Z,57.75
2023-03-21T17:32:01.313Z,38.83
2023-03-21T17:34:27.699Z,59.33
2023-03-21T17:36:54.997Z,31.77
2023-03-21T17:39:22.743Z,46.88
2023-03-21T17:41:49.874Z,52.72
2023-03-21T17:44:16.418Z,52.97
2023-03-21T17:46:42.790Z,48.92
2023-03-21T17:49:16.472Z,38.78
2023-03-21T17:51:43.261Z,43.75
2023-03-21T17:54:10.131Z,40.17
2023-03-21T17:56:37.535Z,47.55
2023-03-21T17:59:05.747Z,47.72
2023-03-21T18:01:32.316Z,46.05
2023-03-21T18:03:59.491Z,39.92
2023-03-21T18:06:26.833Z,6.68
2023-03-21T18:08:54.396Z,6.03
2023-03-21T18:11:21.788Z,7.05
2023-03-21T18:13:48.676Z,9.65
2023-03-21T18:16:16.596Z,10.57
2023-03-21T18:18:45.712Z,7.63
2023-03-21T18:21:19.280Z,7.70
2023-03-21T18:23:46.594Z,8.70
2023-03-21T18:26:16.134Z,5.78
2023-03-21T18:28:43.645Z,9.27
2023-03-21T18:31:18.386Z,6.70
2023-03-21T18:33:46.751Z,8.70
2023-03-21T18:36:15.440Z,5.05
2023-03-21T18:38:42.635Z,15.50
2023-03-21T18:41:09.758Z,9.07
2023-03-21T18:46:23.650Z,9.63
2023-03-21T18:48:51.817Z,8.60
2023-03-21T18:51:19.271Z,7.55
2023-03-21T18:53:45.796Z,6.60
2023-03-21T18:56:46.609Z,7.15
2023-03-21T18:58:59.339Z,5.32
2023-03-21T19:01:25.870Z,7.45
2023-03-21T19:04:16.436Z,7.18
2023-03-21T19:06:46.336Z,7.90
2023-03-21T19:09:14.311Z,6.93
2023-03-21T19:11:42.320Z,7.03
2023-03-21T19:14:09.454Z,7.05
2023-03-21T19:16:56.333Z,4.10
2023-03-21T19:19:23.554Z,7.22
2023-03-21T19:21:51.327Z,8.68
2023-03-21T19:24:27.588Z,5.32
2023-03-21T19:26:54.757Z,6.03
2023-03-21T19:29:21.228Z,6.97
2023-03-21T19:31:50.925Z,5.88
2023-03-21T19:34:17.735Z,5.88
2023-03-21T19:36:45.990Z,7.85
2023-03-21T19:39:19.443Z,5.55
2023-03-21T19:41:46.236Z,6.40
2023-03-21T19:44:12.687Z,6.13
2023-03-21T19:46:39.108Z,7.07
2023-03-21T19:49:06.645Z,5.28
2023-03-21T19:51:33.454Z,10.20
2023-03-21T19:54:02.829Z,5.85
2023-03-21T19:56:31.378Z,6.25
2023-03-21T19:58:58.164Z,10.95
2023-03-21T20:01:24.862Z,7.70
2023-03-21T20:03:52.409Z,9.95
2023-03-21T20:06:19.113Z,7.10
2023-03-21T20:11:32.063Z,10.07
2023-03-21T20:13:59.865Z,6.85
2023-03-21T20:16:33.644Z,5.75
2023-03-21T20:19:00.832Z,7.10
2023-03-21T20:21:33.290Z,7.47
2023-03-21T20:24:06.602Z,6.80
2023-03-21T20:26:33.079Z,7.97
2023-03-21T20:29:28.000Z,5.35
2023-03-21T20:31:45.753Z,10.35
2023-03-21T20:34:12.093Z,8.10
2023-03-21T20:36:40.701Z,8.40
2023-03-21T20:39:08.996Z,8.30
2023-03-21T20:41:35.316Z,5.38
2023-03-21T20:46:48.342Z,7.32
2023-03-21T20:49:15.468Z,8.27
2023-03-21T20:52:40.912Z,7.13
2023-03-21T20:54:28.766Z,11.00
2023-03-21T20:56:55.313Z,13.27
2023-03-21T20:59:27.005Z,10.63
2023-03-21T21:01:55.757Z,11.95
2023-03-21T21:04:23.109Z,12.27
2023-03-21T21:06:53.731Z,13.65
2023-03-21T21:09:20.851Z,11.85
2023-03-21T21:12:06.188Z,11.90
2023-03-21T21:14:35.643Z,11.18
2023-03-21T21:17:17.068Z,11.80
2023-03-21T21:19:51.880Z,9.55
2023-03-21T21:22:18.272Z,9.35
2023-03-21T21:24:44.818Z,12.02
2023-03-21T21:27:11.916Z,13.98
2023-03-21T21:29:38.362Z,14.45
2023-03-21T21:32:05.735Z,10.48
2023-03-21T21:34:32.120Z,12.30
2023-03-21T21:36:58.506Z,13.68
2023-03-21T21:39:26.468Z,14.15
2023-03-21T21:41:52.980Z,12.10
2023-03-21T21:44:19.831Z,13.68
2023-03-21T21:46:46.273Z,14.77
2023-03-21T21:49:12.676Z,15.50
2023-03-21T21:51:41.177Z,11.48
2023-03-21T21:54:07.601Z,12.07
2023-03-21T21:56:34.234Z,10.63
2023-03-21T21:59:02.009Z,10.52
2023-03-21T22:01:29.973Z,7.00
2023-03-21T22:03:57.602Z,10.88
2023-03-21T22:06:24.134Z,8.15
2023-03-21T22:08:51.951Z,10.40
2023-03-21T22:11:21.439Z,10.70
2023-03-21T22:13:48.569Z,12.02
2023-03-21T22:16:14.936Z,10.05
2023-03-21T22:18:43.121Z,9.38
2023-03-21T22:21:09.724Z,9.00
2023-03-21T22:23:36.152Z,8.10
2023-03-21T22:26:02.474Z,6.97
2023-03-21T22:28:28.857Z,7.75
2023-03-21T22:30:55.657Z,7.68
2023-03-21T22:33:22.697Z,8.77
2023-03-21T22:35:52.375Z,10.15
2023-03-21T22:38:24.302Z,4.97
2023-03-21T22:40:55.020Z,7.97
2023-03-21T22:43:21.637Z,6.10
2023-03-21T22:45:48.184Z,6.55
2023-03-21T22:48:14.702Z,9.43
2023-03-21T22:50:41.994Z,4.90
2023-03-21T22:53:08.549Z,3.78
2023-03-21T22:55:34.964Z,7.15
2023-03-21T22:58:01.401Z,8.43
2023-03-21T23:00:29.381Z,9.02
2023-03-21T23:02:57.117Z,6.80
2023-03-21T23:05:23.677Z,5.13
2023-03-21T23:07:49.990Z,6.13
2023-03-21T23:10:16.394Z,5.68
2023-03-21T23:12:42.685Z,3.92
2023-03-21T23:15:09.330Z,3.45
2023-03-21T23:17:35.715Z,8.65
2023-03-21T23:20:02.032Z,6.68
2023-03-21T23:22:32.661Z,6.38
2023-03-21T23:24:59.187Z,8.20
2023-03-21T23:27:25.826Z,7.30
2023-03-21T23:29:52.639Z,7.38
2023-03-21T23:32:19.000Z,5.43
2023-03-21T23:34:45.318Z,10.45
2023-03-21T23:37:12.089Z,8.65
2023-03-21T23:39:39.373Z,6.95
2023-03-21T23:42:06.642Z,3.25
2023-03-21T23:44:33.042Z,4.85
2023-03-21T23:46:59.365Z,4.57
2023-03-21T23:49:26.469Z,4.05
2023-03-21T23:51:52.832Z,4.43
2023-03-21T23:54:19.139Z,5.50
2023-03-21T23:56:45.779Z,3.92
2023-03-21T23:59:12.163Z,4.78
